sensor_id;sensor_type;location;lat;lon;timestamp;P1;durP1;ratioP1;P2;durP2;ratioP2
73632;SDS011;61927;50.080;14.418;2022-08-19T00:01:29;13.35;;;4.18;;
73632;SDS011;61927;50.080;14.418;2022-08-19T00:03:58;10.48;;;4.75;;
73632;SDS011;61927;50.080;14.418;2022-08-19T00:06:27;9.50;;;4.25;;
73632;SDS011;61927;50.080;14.418;2022-08-19T00:08:54;11.93;;;4.25;;
73632;SDS011;61927;50.080;14.418;2022-08-19T00:11:20;9.63;;;4.22;;
73632;SDS011;61927;50.080;14.418;2022-08-19T00:13:46;12.27;;;5.00;;
73632;SDS011;61927;50.080;14.418;2022-08-19T00:16:14;13.68;;;4.82;;
73632;SDS011;61927;50.080;14.418;2022-08-19T00:18:40;13.10;;;4.60;;
73632;SDS011;61927;50.080;14.418;2022-08-19T00:21:05;5.88;;;4.10;;
73632;SDS011;61927;50.080;14.418;2022-08-19T00:23:34;6.57;;;4.13;;
73632;SDS011;61927;50.080;14.418;2022-08-19T00:26:02;9.02;;;4.15;;
73632;SDS011;61927;50.080;14.418;2022-08-19T00:28:28;5.63;;;3.83;;
73632;SDS011;61927;50.080;14.418;2022-08-19T00:30:55;6.43;;;4.03;;
73632;SDS011;61927;50.080;14.418;2022-08-19T00:33:21;33.30;;;5.13;;
73632;SDS011;61927;50.080;14.418;2022-08-19T00:35:47;8.13;;;4.25;;
73632;SDS011;61927;50.080;14.418;2022-08-19T00:38:12;10.07;;;4.07;;
73632;SDS011;61927;50.080;14.418;2022-08-19T00:40:38;10.02;;;3.90;;
73632;SDS011;61927;50.080;14.418;2022-08-19T00:43:07;5.93;;;4.13;;
73632;SDS011;61927;50.080;14.418;2022-08-19T00:45:35;7.43;;;4.28;;
73632;SDS011;61927;50.080;14.418;2022-08-19T00:48:01;6.30;;;4.10;;
73632;SDS011;61927;50.080;14.418;2022-08-19T00:50:29;9.27;;;4.10;;
73632;SDS011;61927;50.080;14.418;2022-08-19T00:52:55;9.18;;;4.55;;
73632;SDS011;61927;50.080;14.418;2022-08-19T00:55:22;9.02;;;4.20;;
73632;SDS011;61927;50.080;14.418;2022-08-19T00:58:10;13.07;;;4.32;;
73632;SDS011;61927;50.080;14.418;2022-08-19T01:00:39;7.55;;;4.47;;
73632;SDS011;61927;50.080;14.418;2022-08-19T01:03:05;7.38;;;4.32;;
73632;SDS011;61927;50.080;14.418;2022-08-19T01:05:32;5.30;;;4.00;;
73632;SDS011;61927;50.080;14.418;2022-08-19T01:07:59;12.35;;;4.97;;
73632;SDS011;61927;50.080;14.418;2022-08-19T01:10:27;7.40;;;4.53;;
73632;SDS011;61927;50.080;14.418;2022-08-19T01:12:57;8.70;;;5.35;;
73632;SDS011;61927;50.080;14.418;2022-08-19T01:15:30;5.80;;;5.30;;
73632;SDS011;61927;50.080;14.418;2022-08-19T01:18:04;7.82;;;5.32;;
73632;SDS011;61927;50.080;14.418;2022-08-19T01:20:32;9.85;;;5.38;;
73632;SDS011;61927;50.080;14.418;2022-08-19T01:23:00;11.32;;;5.50;;
73632;SDS011;61927;50.080;14.418;2022-08-19T01:25:27;12.73;;;5.97;;
73632;SDS011;61927;50.080;14.418;2022-08-19T01:27:55;10.60;;;5.53;;
73632;SDS011;61927;50.080;14.418;2022-08-19T01:30:23;11.32;;;6.20;;
73632;SDS011;61927;50.080;14.418;2022-08-19T01:32:51;8.82;;;5.78;;
73632;SDS011;61927;50.080;14.418;2022-08-19T01:35:18;9.57;;;5.57;;
73632;SDS011;61927;50.080;14.418;2022-08-19T01:37:45;12.25;;;6.13;;
73632;SDS011;61927;50.080;14.418;2022-08-19T01:40:13;9.98;;;6.05;;
73632;SDS011;61927;50.080;14.418;2022-08-19T01:42:39;12.18;;;7.20;;
73632;SDS011;61927;50.080;14.418;2022-08-19T01:45:06;8.02;;;6.63;;
73632;SDS011;61927;50.080;14.418;2022-08-19T01:47:34;25.30;;;7.32;;
73632;SDS011;61927;50.080;14.418;2022-08-19T01:50:01;8.68;;;7.28;;
73632;SDS011;61927;50.080;14.418;2022-08-19T01:52:28;10.00;;;7.85;;
73632;SDS011;61927;50.080;14.418;2022-08-19T01:54:53;14.90;;;8.35;;
73632;SDS011;61927;50.080;14.418;2022-08-19T01:57:19;9.35;;;6.72;;
73632;SDS011;61927;50.080;14.418;2022-08-19T01:59:45;8.65;;;6.60;;
73632;SDS011;61927;50.080;14.418;2022-08-19T02:02:10;8.20;;;6.35;;
73632;SDS011;61927;50.080;14.418;2022-08-19T02:04:36;10.43;;;6.40;;
73632;SDS011;61927;50.080;14.418;2022-08-19T02:07:06;14.35;;;6.75;;
73632;SDS011;61927;50.080;14.418;2022-08-19T02:09:33;6.75;;;6.05;;
73632;SDS011;61927;50.080;14.418;2022-08-19T02:11:59;7.00;;;6.28;;
73632;SDS011;61927;50.080;14.418;2022-08-19T02:14:24;12.30;;;6.35;;
73632;SDS011;61927;50.080;14.418;2022-08-19T02:16:50;7.50;;;5.68;;
73632;SDS011;61927;50.080;14.418;2022-08-19T02:19:16;12.57;;;6.22;;
73632;SDS011;61927;50.080;14.418;2022-08-19T02:21:41;6.43;;;5.22;;
73632;SDS011;61927;50.080;14.418;2022-08-19T02:24:08;7.72;;;6.00;;
73632;SDS011;61927;50.080;14.418;2022-08-19T02:26:34;8.05;;;6.47;;
73632;SDS011;61927;50.080;14.418;2022-08-19T02:29:00;9.20;;;6.80;;
73632;SDS011;61927;50.080;14.418;2022-08-19T02:31:26;9.63;;;6.60;;
73632;SDS011;61927;50.080;14.418;2022-08-19T02:33:53;11.00;;;7.28;;
73632;SDS011;61927;50.080;14.418;2022-08-19T02:36:20;11.50;;;6.03;;
73632;SDS011;61927;50.080;14.418;2022-08-19T02:38:46;8.90;;;6.32;;
73632;SDS011;61927;50.080;14.418;2022-08-19T02:41:16;15.30;;;6.25;;
73632;SDS011;61927;50.080;14.418;2022-08-19T02:43:44;11.52;;;6.78;;
73632;SDS011;61927;50.080;14.418;2022-08-19T02:46:11;13.70;;;6.90;;
73632;SDS011;61927;50.080;14.418;2022-08-19T02:48:55;9.20;;;7.45;;
73632;SDS011;61927;50.080;14.418;2022-08-19T02:51:28;10.20;;;7.80;;
73632;SDS011;61927;50.080;14.418;2022-08-19T02:54:05;16.20;;;8.18;;
73632;SDS011;61927;50.080;14.418;2022-08-19T02:56:33;9.93;;;7.97;;
73632;SDS011;61927;50.080;14.418;2022-08-19T02:59:00;10.57;;;8.60;;
73632;SDS011;61927;50.080;14.418;2022-08-19T03:01:27;9.90;;;8.45;;
73632;SDS011;61927;50.080;14.418;2022-08-19T03:03:57;10.63;;;8.15;;
73632;SDS011;61927;50.080;14.418;2022-08-19T03:06:25;17.98;;;8.88;;
73632;SDS011;61927;50.080;14.418;2022-08-19T03:08:52;11.88;;;8.60;;
73632;SDS011;61927;50.080;14.418;2022-08-19T03:11:19;10.77;;;8.82;;
73632;SDS011;61927;50.080;14.418;2022-08-19T03:13:48;19.60;;;9.82;;
73632;SDS011;61927;50.080;14.418;2022-08-19T03:16:15;12.35;;;9.38;;
73632;SDS011;61927;50.080;14.418;2022-08-19T03:18:42;10.75;;;9.13;;
73632;SDS011;61927;50.080;14.418;2022-08-19T03:21:08;13.43;;;9.70;;
73632;SDS011;61927;50.080;14.418;2022-08-19T03:23:35;13.77;;;9.57;;
73632;SDS011;61927;50.080;14.418;2022-08-19T03:26:04;11.40;;;9.52;;
73632;SDS011;61927;50.080;14.418;2022-08-19T03:28:31;15.07;;;9.82;;
73632;SDS011;61927;50.080;14.418;2022-08-19T03:31:02;12.32;;;10.05;;
73632;SDS011;61927;50.080;14.418;2022-08-19T03:33:29;11.30;;;10.13;;
73632;SDS011;61927;50.080;14.418;2022-08-19T03:36:09;13.65;;;10.25;;
73632;SDS011;61927;50.080;14.418;2022-08-19T03:38:39;13.27;;;9.85;;
73632;SDS011;61927;50.080;14.418;2022-08-19T03:41:07;16.48;;;10.30;;
73632;SDS011;61927;50.080;14.418;2022-08-19T03:43:38;81.07;;;14.57;;
73632;SDS011;61927;50.080;14.418;2022-08-19T03:46:12;14.63;;;10.50;;
73632;SDS011;61927;50.080;14.418;2022-08-19T03:48:39;15.85;;;10.70;;
73632;SDS011;61927;50.080;14.418;2022-08-19T03:51:07;13.77;;;11.20;;
73632;SDS011;61927;50.080;14.418;2022-08-19T03:53:33;17.50;;;11.27;;
73632;SDS011;61927;50.080;14.418;2022-08-19T03:56:00;14.95;;;10.40;;
73632;SDS011;61927;50.080;14.418;2022-08-19T03:58:27;15.82;;;10.52;;
73632;SDS011;61927;50.080;14.418;2022-08-19T04:00:56;13.20;;;10.75;;
73632;SDS011;61927;50.080;14.418;2022-08-19T04:03:23;13.13;;;10.60;;
73632;SDS011;61927;50.080;14.418;2022-08-19T04:05:51;18.73;;;10.80;;
73632;SDS011;61927;50.080;14.418;2022-08-19T04:08:18;16.63;;;11.32;;
73632;SDS011;61927;50.080;14.418;2022-08-19T04:10:47;12.68;;;10.82;;
73632;SDS011;61927;50.080;14.418;2022-08-19T04:13:17;14.85;;;10.63;;
73632;SDS011;61927;50.080;14.418;2022-08-19T04:15:44;12.45;;;10.45;;
73632;SDS011;61927;50.080;14.418;2022-08-19T04:18:11;14.40;;;11.35;;
73632;SDS011;61927;50.080;14.418;2022-08-19T04:20:39;14.77;;;11.35;;
73632;SDS011;61927;50.080;14.418;2022-08-19T04:23:10;14.20;;;11.20;;
73632;SDS011;61927;50.080;14.418;2022-08-19T04:25:37;12.55;;;10.55;;
73632;SDS011;61927;50.080;14.418;2022-08-19T04:28:08;15.02;;;11.27;;
73632;SDS011;61927;50.080;14.418;2022-08-19T04:30:39;17.48;;;11.52;;
73632;SDS011;61927;50.080;14.418;2022-08-19T04:33:06;21.35;;;11.95;;
73632;SDS011;61927;50.080;14.418;2022-08-19T04:35:42;15.73;;;11.70;;
73632;SDS011;61927;50.080;14.418;2022-08-19T04:38:09;16.50;;;10.82;;
73632;SDS011;61927;50.080;14.418;2022-08-19T04:40:43;21.55;;;12.00;;
73632;SDS011;61927;50.080;14.418;2022-08-19T04:43:29;18.65;;;11.43;;
73632;SDS011;61927;50.080;14.418;2022-08-19T04:45:55;15.95;;;11.05;;
73632;SDS011;61927;50.080;14.418;2022-08-19T04:48:21;15.50;;;10.60;;
73632;SDS011;61927;50.080;14.418;2022-08-19T04:50:55;21.65;;;12.00;;
73632;SDS011;61927;50.080;14.418;2022-08-19T04:53:23;18.73;;;11.52;;
73632;SDS011;61927;50.080;14.418;2022-08-19T04:55:51;15.30;;;10.82;;
73632;SDS011;61927;50.080;14.418;2022-08-19T04:58:17;24.55;;;11.55;;
73632;SDS011;61927;50.080;14.418;2022-08-19T05:00:43;43.45;;;11.80;;
73632;SDS011;61927;50.080;14.418;2022-08-19T05:03:09;55.45;;;12.60;;
73632;SDS011;61927;50.080;14.418;2022-08-19T05:05:41;27.08;;;11.32;;
73632;SDS011;61927;50.080;14.418;2022-08-19T05:08:07;17.10;;;11.77;;
73632;SDS011;61927;50.080;14.418;2022-08-19T05:10:37;20.90;;;11.48;;
73632;SDS011;61927;50.080;14.418;2022-08-19T05:13:03;14.88;;;11.27;;
73632;SDS011;61927;50.080;14.418;2022-08-19T05:15:29;16.38;;;11.30;;
73632;SDS011;61927;50.080;14.418;2022-08-19T05:17:56;16.73;;;12.35;;
73632;SDS011;61927;50.080;14.418;2022-08-19T05:20:40;19.20;;;11.68;;
73632;SDS011;61927;50.080;14.418;2022-08-19T05:23:24;16.30;;;11.38;;
73632;SDS011;61927;50.080;14.418;2022-08-19T05:25:50;24.65;;;12.07;;
73632;SDS011;61927;50.080;14.418;2022-08-19T05:28:17;15.75;;;11.75;;
73632;SDS011;61927;50.080;14.418;2022-08-19T05:30:43;14.13;;;11.25;;
73632;SDS011;61927;50.080;14.418;2022-08-19T05:33:10;14.10;;;11.90;;
73632;SDS011;61927;50.080;14.418;2022-08-19T05:35:37;21.08;;;12.57;;
73632;SDS011;61927;50.080;14.418;2022-08-19T05:38:04;16.70;;;11.43;;
73632;SDS011;61927;50.080;14.418;2022-08-19T05:40:35;16.25;;;11.80;;
73632;SDS011;61927;50.080;14.418;2022-08-19T05:43:01;17.05;;;10.90;;
73632;SDS011;61927;50.080;14.418;2022-08-19T05:45:28;21.63;;;11.60;;
73632;SDS011;61927;50.080;14.418;2022-08-19T05:47:53;43.30;;;13.32;;
73632;SDS011;61927;50.080;14.418;2022-08-19T05:50:19;23.30;;;12.80;;
73632;SDS011;61927;50.080;14.418;2022-08-19T05:52:45;21.23;;;12.55;;
73632;SDS011;61927;50.080;14.418;2022-08-19T05:55:10;20.60;;;12.98;;
73632;SDS011;61927;50.080;14.418;2022-08-19T05:57:36;20.17;;;12.27;;
73632;SDS011;61927;50.080;14.418;2022-08-19T06:00:04;25.42;;;12.52;;
73632;SDS011;61927;50.080;14.418;2022-08-19T06:02:35;32.50;;;13.63;;
73632;SDS011;61927;50.080;14.418;2022-08-19T06:05:00;40.28;;;13.70;;
73632;SDS011;61927;50.080;14.418;2022-08-19T06:07:27;28.83;;;13.20;;
73632;SDS011;61927;50.080;14.418;2022-08-19T06:09:54;23.80;;;13.00;;
73632;SDS011;61927;50.080;14.418;2022-08-19T06:12:20;13.32;;;11.93;;
73632;SDS011;61927;50.080;14.418;2022-08-19T06:14:55;17.13;;;13.20;;
73632;SDS011;61927;50.080;14.418;2022-08-19T06:17:21;21.63;;;12.82;;
73632;SDS011;61927;50.080;14.418;2022-08-19T06:19:51;29.35;;;12.13;;
73632;SDS011;61927;50.080;14.418;2022-08-19T06:22:17;15.98;;;12.05;;
73632;SDS011;61927;50.080;14.418;2022-08-19T06:24:42;25.63;;;12.20;;
73632;SDS011;61927;50.080;14.418;2022-08-19T06:27:08;19.10;;;11.10;;
73632;SDS011;61927;50.080;14.418;2022-08-19T06:29:34;48.70;;;13.13;;
73632;SDS011;61927;50.080;14.418;2022-08-19T06:32:00;20.40;;;11.30;;
73632;SDS011;61927;50.080;14.418;2022-08-19T06:34:28;24.27;;;11.35;;
73632;SDS011;61927;50.080;14.418;2022-08-19T06:36:58;15.25;;;11.73;;
73632;SDS011;61927;50.080;14.418;2022-08-19T06:39:29;24.52;;;11.77;;
73632;SDS011;61927;50.080;14.418;2022-08-19T06:41:58;15.57;;;12.18;;
73632;SDS011;61927;50.080;14.418;2022-08-19T06:44:27;37.40;;;12.82;;
73632;SDS011;61927;50.080;14.418;2022-08-19T06:46:54;15.48;;;11.07;;
73632;SDS011;61927;50.080;14.418;2022-08-19T06:49:20;13.60;;;10.73;;
73632;SDS011;61927;50.080;14.418;2022-08-19T06:51:48;18.05;;;10.77;;
73632;SDS011;61927;50.080;14.418;2022-08-19T06:54:15;25.17;;;11.38;;
73632;SDS011;61927;50.080;14.418;2022-08-19T06:56:42;14.80;;;11.07;;
73632;SDS011;61927;50.080;14.418;2022-08-19T06:59:10;16.05;;;11.52;;
73632;SDS011;61927;50.080;14.418;2022-08-19T07:01:37;27.90;;;11.90;;
73632;SDS011;61927;50.080;14.418;2022-08-19T07:04:05;41.42;;;12.43;;
73632;SDS011;61927;50.080;14.418;2022-08-19T07:06:34;20.27;;;11.18;;
73632;SDS011;61927;50.080;14.418;2022-08-19T07:09:01;22.45;;;11.10;;
73632;SDS011;61927;50.080;14.418;2022-08-19T07:11:27;18.38;;;10.88;;
73632;SDS011;61927;50.080;14.418;2022-08-19T07:13:53;24.48;;;10.63;;
73632;SDS011;61927;50.080;14.418;2022-08-19T07:16:19;28.83;;;16.48;;
73632;SDS011;61927;50.080;14.418;2022-08-19T07:18:48;109.70;;;14.27;;
73632;SDS011;61927;50.080;14.418;2022-08-19T07:21:17;55.03;;;15.00;;
73632;SDS011;61927;50.080;14.418;2022-08-19T07:23:48;21.83;;;11.68;;
73632;SDS011;61927;50.080;14.418;2022-08-19T07:28:41;23.15;;;11.60;;
73632;SDS011;61927;50.080;14.418;2022-08-19T07:31:12;20.60;;;11.73;;
73632;SDS011;61927;50.080;14.418;2022-08-19T07:33:43;17.98;;;11.25;;
73632;SDS011;61927;50.080;14.418;2022-08-19T07:36:11;42.50;;;13.10;;
73632;SDS011;61927;50.080;14.418;2022-08-19T07:38:38;27.83;;;11.20;;
73632;SDS011;61927;50.080;14.418;2022-08-19T07:41:11;22.80;;;11.35;;
73632;SDS011;61927;50.080;14.418;2022-08-19T07:43:38;18.67;;;12.23;;
73632;SDS011;61927;50.080;14.418;2022-08-19T07:46:05;63.35;;;13.25;;
73632;SDS011;61927;50.080;14.418;2022-08-19T07:48:32;38.90;;;13.70;;
73632;SDS011;61927;50.080;14.418;2022-08-19T07:51:01;18.83;;;11.48;;
73632;SDS011;61927;50.080;14.418;2022-08-19T07:53:29;14.52;;;10.82;;
73632;SDS011;61927;50.080;14.418;2022-08-19T07:55:56;15.55;;;11.20;;
73632;SDS011;61927;50.080;14.418;2022-08-19T07:58:28;27.55;;;11.40;;
73632;SDS011;61927;50.080;14.418;2022-08-19T08:01:00;24.20;;;11.23;;
73632;SDS011;61927;50.080;14.418;2022-08-19T08:03:28;13.23;;;10.52;;
73632;SDS011;61927;50.080;14.418;2022-08-19T08:06:13;25.95;;;14.70;;
73632;SDS011;61927;50.080;14.418;2022-08-19T08:08:58;66.43;;;12.90;;
73632;SDS011;61927;50.080;14.418;2022-08-19T08:11:50;22.00;;;12.23;;
73632;SDS011;61927;50.080;14.418;2022-08-19T08:14:20;13.32;;;10.75;;
73632;SDS011;61927;50.080;14.418;2022-08-19T08:16:48;32.72;;;11.13;;
73632;SDS011;61927;50.080;14.418;2022-08-19T08:19:15;20.35;;;11.48;;
73632;SDS011;61927;50.080;14.418;2022-08-19T08:21:43;17.42;;;11.43;;
73632;SDS011;61927;50.080;14.418;2022-08-19T08:24:09;24.90;;;13.25;;
73632;SDS011;61927;50.080;14.418;2022-08-19T08:26:35;15.18;;;11.15;;
73632;SDS011;61927;50.080;14.418;2022-08-19T08:29:00;15.00;;;11.73;;
73632;SDS011;61927;50.080;14.418;2022-08-19T08:31:26;25.40;;;11.82;;
73632;SDS011;61927;50.080;14.418;2022-08-19T08:33:52;20.98;;;11.65;;
73632;SDS011;61927;50.080;14.418;2022-08-19T08:36:18;21.63;;;11.88;;
73632;SDS011;61927;50.080;14.418;2022-08-19T08:38:43;21.23;;;11.00;;
73632;SDS011;61927;50.080;14.418;2022-08-19T08:43:53;16.05;;;11.32;;
73632;SDS011;61927;50.080;14.418;2022-08-19T08:46:30;18.98;;;11.27;;
73632;SDS011;61927;50.080;14.418;2022-08-19T08:54:37;16.13;;;11.30;;
73632;SDS011;61927;50.080;14.418;2022-08-19T08:57:12;19.58;;;11.27;;
73632;SDS011;61927;50.080;14.418;2022-08-19T08:59:43;24.17;;;13.90;;
73632;SDS011;61927;50.080;14.418;2022-08-19T09:02:16;16.75;;;9.57;;
73632;SDS011;61927;50.080;14.418;2022-08-19T09:04:43;19.27;;;11.30;;
73632;SDS011;61927;50.080;14.418;2022-08-19T09:07:16;12.15;;;10.18;;
73632;SDS011;61927;50.080;14.418;2022-08-19T09:10:02;28.35;;;12.27;;
73632;SDS011;61927;50.080;14.418;2022-08-19T09:15:12;14.27;;;10.95;;
73632;SDS011;61927;50.080;14.418;2022-08-19T09:17:39;23.98;;;11.05;;
73632;SDS011;61927;50.080;14.418;2022-08-19T09:20:16;16.95;;;11.05;;
73632;SDS011;61927;50.080;14.418;2022-08-19T09:22:45;17.67;;;11.35;;
73632;SDS011;61927;50.080;14.418;2022-08-19T09:25:12;20.00;;;11.32;;
73632;SDS011;61927;50.080;14.418;2022-08-19T09:27:41;33.22;;;11.15;;
73632;SDS011;61927;50.080;14.418;2022-08-19T09:30:07;23.33;;;13.43;;
73632;SDS011;61927;50.080;14.418;2022-08-19T09:32:35;35.50;;;13.55;;
73632;SDS011;61927;50.080;14.418;2022-08-19T09:35:01;23.50;;;12.20;;
73632;SDS011;61927;50.080;14.418;2022-08-19T09:37:27;16.38;;;11.48;;
73632;SDS011;61927;50.080;14.418;2022-08-19T09:39:52;11.60;;;10.38;;
73632;SDS011;61927;50.080;14.418;2022-08-19T09:42:18;16.15;;;10.75;;
73632;SDS011;61927;50.080;14.418;2022-08-19T09:44:45;17.77;;;11.57;;
73632;SDS011;61927;50.080;14.418;2022-08-19T09:47:12;15.65;;;11.07;;
73632;SDS011;61927;50.080;14.418;2022-08-19T09:49:39;20.33;;;12.25;;
73632;SDS011;61927;50.080;14.418;2022-08-19T09:52:06;27.60;;;12.35;;
73632;SDS011;61927;50.080;14.418;2022-08-19T09:54:34;12.68;;;10.40;;
73632;SDS011;61927;50.080;14.418;2022-08-19T09:57:00;15.43;;;10.32;;
73632;SDS011;61927;50.080;14.418;2022-08-19T09:59:26;44.30;;;13.18;;
73632;SDS011;61927;50.080;14.418;2022-08-19T10:01:52;23.25;;;11.40;;
73632;SDS011;61927;50.080;14.418;2022-08-19T10:04:18;21.20;;;11.45;;
73632;SDS011;61927;50.080;14.418;2022-08-19T10:06:44;21.38;;;11.30;;
73632;SDS011;61927;50.080;14.418;2022-08-19T10:09:13;27.95;;;13.48;;
73632;SDS011;61927;50.080;14.418;2022-08-19T10:11:40;15.35;;;10.80;;
73632;SDS011;61927;50.080;14.418;2022-08-19T10:14:08;12.55;;;10.80;;
73632;SDS011;61927;50.080;14.418;2022-08-19T10:16:35;13.80;;;11.50;;
73632;SDS011;61927;50.080;14.418;2022-08-19T10:19:02;13.93;;;10.93;;
73632;SDS011;61927;50.080;14.418;2022-08-19T10:21:29;29.33;;;12.13;;
73632;SDS011;61927;50.080;14.418;2022-08-19T10:23:58;13.02;;;9.98;;
73632;SDS011;61927;50.080;14.418;2022-08-19T10:26:27;20.27;;;11.30;;
73632;SDS011;61927;50.080;14.418;2022-08-19T10:28:54;14.48;;;10.93;;
73632;SDS011;61927;50.080;14.418;2022-08-19T10:31:22;17.02;;;11.55;;
73632;SDS011;61927;50.080;14.418;2022-08-19T10:33:50;20.45;;;10.52;;
73632;SDS011;61927;50.080;14.418;2022-08-19T10:36:24;15.23;;;11.35;;
73632;SDS011;61927;50.080;14.418;2022-08-19T10:38:52;23.17;;;11.82;;
73632;SDS011;61927;50.080;14.418;2022-08-19T10:41:20;18.05;;;10.68;;
73632;SDS011;61927;50.080;14.418;2022-08-19T10:43:52;19.38;;;11.48;;
73632;SDS011;61927;50.080;14.418;2022-08-19T10:46:19;22.25;;;11.38;;
73632;SDS011;61927;50.080;14.418;2022-08-19T10:48:46;23.92;;;12.10;;
73632;SDS011;61927;50.080;14.418;2022-08-19T10:51:12;15.57;;;10.57;;
73632;SDS011;61927;50.080;14.418;2022-08-19T10:53:56;16.38;;;11.85;;
73632;SDS011;61927;50.080;14.418;2022-08-19T10:56:23;23.80;;;12.02;;
73632;SDS011;61927;50.080;14.418;2022-08-19T10:59:07;39.67;;;11.35;;
73632;SDS011;61927;50.080;14.418;2022-08-19T11:01:34;62.40;;;15.43;;
73632;SDS011;61927;50.080;14.418;2022-08-19T11:04:00;48.50;;;13.68;;
73632;SDS011;61927;50.080;14.418;2022-08-19T11:06:27;21.63;;;11.65;;
73632;SDS011;61927;50.080;14.418;2022-08-19T11:08:53;44.05;;;14.55;;
73632;SDS011;61927;50.080;14.418;2022-08-19T11:11:19;19.02;;;12.07;;
73632;SDS011;61927;50.080;14.418;2022-08-19T11:13:46;17.92;;;11.45;;
73632;SDS011;61927;50.080;14.418;2022-08-19T11:16:13;18.38;;;11.48;;
73632;SDS011;61927;50.080;14.418;2022-08-19T11:18:42;15.43;;;11.88;;
73632;SDS011;61927;50.080;14.418;2022-08-19T11:21:14;20.10;;;12.82;;
73632;SDS011;61927;50.080;14.418;2022-08-19T11:23:42;21.25;;;11.25;;
73632;SDS011;61927;50.080;14.418;2022-08-19T11:26:09;18.48;;;10.95;;
73632;SDS011;61927;50.080;14.418;2022-08-19T11:28:35;22.92;;;11.80;;
73632;SDS011;61927;50.080;14.418;2022-08-19T11:31:02;19.13;;;12.15;;
73632;SDS011;61927;50.080;14.418;2022-08-19T11:33:29;25.80;;;11.48;;
73632;SDS011;61927;50.080;14.418;2022-08-19T11:35:58;24.50;;;12.15;;
73632;SDS011;61927;50.080;14.418;2022-08-19T11:38:26;21.33;;;12.13;;
73632;SDS011;61927;50.080;14.418;2022-08-19T11:41:00;23.35;;;13.02;;
73632;SDS011;61927;50.080;14.418;2022-08-19T11:43:27;39.80;;;12.40;;
73632;SDS011;61927;50.080;14.418;2022-08-19T11:45:54;37.28;;;13.43;;
73632;SDS011;61927;50.080;14.418;2022-08-19T11:48:20;23.42;;;12.18;;
73632;SDS011;61927;50.080;14.418;2022-08-19T11:50:50;38.45;;;18.58;;
73632;SDS011;61927;50.080;14.418;2022-08-19T11:53:17;30.52;;;12.63;;
73632;SDS011;61927;50.080;14.418;2022-08-19T11:55:45;16.90;;;11.40;;
73632;SDS011;61927;50.080;14.418;2022-08-19T11:58:12;27.83;;;11.80;;
73632;SDS011;61927;50.080;14.418;2022-08-19T12:00:39;26.00;;;12.60;;
73632;SDS011;61927;50.080;14.418;2022-08-19T12:03:05;19.67;;;11.13;;
73632;SDS011;61927;50.080;14.418;2022-08-19T12:05:31;19.00;;;11.88;;
73632;SDS011;61927;50.080;14.418;2022-08-19T12:07:57;16.42;;;11.05;;
73632;SDS011;61927;50.080;14.418;2022-08-19T12:10:23;15.15;;;10.20;;
73632;SDS011;61927;50.080;14.418;2022-08-19T12:12:48;21.60;;;10.20;;
73632;SDS011;61927;50.080;14.418;2022-08-19T12:15:14;27.73;;;11.73;;
73632;SDS011;61927;50.080;14.418;2022-08-19T12:17:40;20.45;;;11.38;;
73632;SDS011;61927;50.080;14.418;2022-08-19T12:20:07;16.50;;;9.80;;
73632;SDS011;61927;50.080;14.418;2022-08-19T12:22:36;23.52;;;10.80;;
73632;SDS011;61927;50.080;14.418;2022-08-19T12:25:03;17.00;;;13.65;;
73632;SDS011;61927;50.080;14.418;2022-08-19T12:27:30;19.92;;;13.23;;
73632;SDS011;61927;50.080;14.418;2022-08-19T12:29:56;27.55;;;11.82;;
73632;SDS011;61927;50.080;14.418;2022-08-19T12:32:22;18.83;;;10.35;;
73632;SDS011;61927;50.080;14.418;2022-08-19T12:34:50;16.98;;;10.80;;
73632;SDS011;61927;50.080;14.418;2022-08-19T12:37:15;19.75;;;10.98;;
73632;SDS011;61927;50.080;14.418;2022-08-19T12:39:42;25.75;;;11.40;;
73632;SDS011;61927;50.080;14.418;2022-08-19T12:42:09;27.00;;;11.75;;
73632;SDS011;61927;50.080;14.418;2022-08-19T12:44:36;35.95;;;12.10;;
73632;SDS011;61927;50.080;14.418;2022-08-19T12:47:04;16.85;;;10.00;;
73632;SDS011;61927;50.080;14.418;2022-08-19T12:49:31;15.35;;;10.27;;
73632;SDS011;61927;50.080;14.418;2022-08-19T12:52:02;18.23;;;9.98;;
73632;SDS011;61927;50.080;14.418;2022-08-19T12:54:29;22.23;;;10.95;;
73632;SDS011;61927;50.080;14.418;2022-08-19T12:56:56;20.80;;;9.93;;
73632;SDS011;61927;50.080;14.418;2022-08-19T12:59:23;22.75;;;10.63;;
73632;SDS011;61927;50.080;14.418;2022-08-19T13:01:48;16.40;;;10.80;;
73632;SDS011;61927;50.080;14.418;2022-08-19T13:04:14;25.88;;;10.63;;
73632;SDS011;61927;50.080;14.418;2022-08-19T13:06:41;16.33;;;10.32;;
73632;SDS011;61927;50.080;14.418;2022-08-19T13:09:08;24.83;;;13.07;;
73632;SDS011;61927;50.080;14.418;2022-08-19T13:11:34;14.98;;;9.70;;
73632;SDS011;61927;50.080;14.418;2022-08-19T13:14:00;14.52;;;10.07;;
73632;SDS011;61927;50.080;14.418;2022-08-19T13:16:27;16.25;;;9.65;;
73632;SDS011;61927;50.080;14.418;2022-08-19T13:18:54;34.88;;;12.75;;
73632;SDS011;61927;50.080;14.418;2022-08-19T13:21:22;19.15;;;10.30;;
73632;SDS011;61927;50.080;14.418;2022-08-19T13:23:49;13.98;;;9.07;;
73632;SDS011;61927;50.080;14.418;2022-08-19T13:26:16;29.50;;;9.48;;
73632;SDS011;61927;50.080;14.418;2022-08-19T13:28:43;10.70;;;9.20;;
73632;SDS011;61927;50.080;14.418;2022-08-19T13:31:30;20.70;;;9.40;;
73632;SDS011;61927;50.080;14.418;2022-08-19T13:34:17;15.52;;;9.77;;
73632;SDS011;61927;50.080;14.418;2022-08-19T13:36:45;15.20;;;9.70;;
73632;SDS011;61927;50.080;14.418;2022-08-19T13:39:11;15.15;;;9.13;;
73632;SDS011;61927;50.080;14.418;2022-08-19T13:41:37;17.42;;;9.48;;
73632;SDS011;61927;50.080;14.418;2022-08-19T13:44:08;14.80;;;9.45;;
73632;SDS011;61927;50.080;14.418;2022-08-19T13:46:34;13.15;;;8.98;;
73632;SDS011;61927;50.080;14.418;2022-08-19T13:48:59;18.55;;;9.32;;
73632;SDS011;61927;50.080;14.418;2022-08-19T13:51:25;17.73;;;9.10;;
73632;SDS011;61927;50.080;14.418;2022-08-19T13:53:51;11.75;;;9.18;;
73632;SDS011;61927;50.080;14.418;2022-08-19T13:56:17;23.13;;;8.68;;
73632;SDS011;61927;50.080;14.418;2022-08-19T13:58:47;14.82;;;9.10;;
73632;SDS011;61927;50.080;14.418;2022-08-19T14:01:18;9.85;;;8.10;;
73632;SDS011;61927;50.080;14.418;2022-08-19T14:03:45;12.85;;;8.80;;
73632;SDS011;61927;50.080;14.418;2022-08-19T14:06:10;10.75;;;8.07;;
73632;SDS011;61927;50.080;14.418;2022-08-19T14:08:36;12.82;;;8.70;;
73632;SDS011;61927;50.080;14.418;2022-08-19T14:11:04;13.90;;;8.68;;
73632;SDS011;61927;50.080;14.418;2022-08-19T14:13:30;15.60;;;8.63;;
73632;SDS011;61927;50.080;14.418;2022-08-19T14:15:58;9.93;;;7.55;;
73632;SDS011;61927;50.080;14.418;2022-08-19T14:18:24;12.95;;;8.15;;
73632;SDS011;61927;50.080;14.418;2022-08-19T14:20:50;11.75;;;8.15;;
73632;SDS011;61927;50.080;14.418;2022-08-19T14:23:16;12.45;;;7.90;;
73632;SDS011;61927;50.080;14.418;2022-08-19T14:25:42;14.18;;;8.45;;
73632;SDS011;61927;50.080;14.418;2022-08-19T14:28:08;19.23;;;8.95;;
73632;SDS011;61927;50.080;14.418;2022-08-19T14:30:34;13.50;;;8.23;;
73632;SDS011;61927;50.080;14.418;2022-08-19T14:33:03;11.23;;;8.20;;
73632;SDS011;61927;50.080;14.418;2022-08-19T14:35:30;16.77;;;7.97;;